sensor_id;sensor_type;location;lat;lon;timestamp;temperature;humidity
75964;DHT22;65820;44.726;37.764;2023-03-13T00:00:10;19.68;50.09
75964;DHT22;65820;44.726;37.764;2023-03-13T00:01:22;19.66;49.83
75964;DHT22;65820;44.726;37.764;2023-03-13T00:02:24;19.66;49.96
75964;DHT22;65820;44.726;37.764;2023-03-13T00:03:26;19.65;50.05
75964;DHT22;65820;44.726;37.764;2023-03-13T00:04:28;19.63;49.79
75964;DHT22;65820;44.726;37.764;2023-03-13T00:05:29;19.63;49.97
75964;DHT22;65820;44.726;37.764;2023-03-13T00:06:33;19.63;49.85
75964;DHT22;65820;44.726;37.764;2023-03-13T00:07:34;19.62;49.81
75964;DHT22;65820;44.726;37.764;2023-03-13T00:08:36;19.62;49.97
75964;DHT22;65820;44.726;37.764;2023-03-13T00:09:37;19.62;49.86
75964;DHT22;65820;44.726;37.764;2023-03-13T00:10:39;19.62;49.60
75964;DHT22;65820;44.726;37.764;2023-03-13T00:11:42;19.60;49.95
75964;DHT22;65820;44.726;37.764;2023-03-13T00:12:43;19.61;49.73
75964;DHT22;65820;44.726;37.764;2023-03-13T00:13:44;19.59;49.83
75964;DHT22;65820;44.726;37.764;2023-03-13T00:14:46;19.60;49.73
75964;DHT22;65820;44.726;37.764;2023-03-13T00:15:47;19.60;49.72
75964;DHT22;65820;44.726;37.764;2023-03-13T00:16:48;19.59;49.60
75964;DHT22;65820;44.726;37.764;2023-03-13T00:17:49;19.59;49.70
75964;DHT22;65820;44.726;37.764;2023-03-13T00:18:52;19.60;49.81
75964;DHT22;65820;44.726;37.764;2023-03-13T00:19:54;19.59;49.54
75964;DHT22;65820;44.726;37.764;2023-03-13T00:21:03;19.58;49.42
75964;DHT22;65820;44.726;37.764;2023-03-13T00:22:05;19.58;49.43
75964;DHT22;65820;44.726;37.764;2023-03-13T00:23:06;19.57;49.69
75964;DHT22;65820;44.726;37.764;2023-03-13T00:24:09;19.56;49.51
75964;DHT22;65820;44.726;37.764;2023-03-13T00:25:10;19.57;49.66
75964;DHT22;65820;44.726;37.764;2023-03-13T00:26:16;19.56;49.51
75964;DHT22;65820;44.726;37.764;2023-03-13T00:27:17;19.56;49.38
75964;DHT22;65820;44.726;37.764;2023-03-13T00:28:19;19.55;49.32
75964;DHT22;65820;44.726;37.764;2023-03-13T00:29:20;19.55;49.70
75964;DHT22;65820;44.726;37.764;2023-03-13T00:30:22;19.54;49.32
75964;DHT22;65820;44.726;37.764;2023-03-13T00:31:30;19.55;49.32
75964;DHT22;65820;44.726;37.764;2023-03-13T00:32:32;19.53;49.11
75964;DHT22;65820;44.726;37.764;2023-03-13T00:33:34;19.54;49.36
75964;DHT22;65820;44.726;37.764;2023-03-13T00:34:37;19.54;49.41
75964;DHT22;65820;44.726;37.764;2023-03-13T00:35:40;19.54;49.25
75964;DHT22;65820;44.726;37.764;2023-03-13T00:36:43;19.53;49.37
75964;DHT22;65820;44.726;37.764;2023-03-13T00:37:44;19.52;49.40
75964;DHT22;65820;44.726;37.764;2023-03-13T00:38:46;19.53;49.22
75964;DHT22;65820;44.726;37.764;2023-03-13T00:39:47;19.53;49.08
75964;DHT22;65820;44.726;37.764;2023-03-13T00:40:48;19.52;49.21
75964;DHT22;65820;44.726;37.764;2023-03-13T00:41:50;19.52;49.35
75964;DHT22;65820;44.726;37.764;2023-03-13T00:42:52;19.51;49.05
75964;DHT22;65820;44.726;37.764;2023-03-13T00:43:53;19.52;49.11
75964;DHT22;65820;44.726;37.764;2023-03-13T00:44:55;19.52;49.08
75964;DHT22;65820;44.726;37.764;2023-03-13T00:45:58;19.51;49.15
75964;DHT22;65820;44.726;37.764;2023-03-13T00:46:59;19.51;49.14
75964;DHT22;65820;44.726;37.764;2023-03-13T00:48:01;19.51;49.23
75964;DHT22;65820;44.726;37.764;2023-03-13T00:49:02;19.50;49.03
75964;DHT22;65820;44.726;37.764;2023-03-13T00:50:04;19.48;49.21
75964;DHT22;65820;44.726;37.764;2023-03-13T00:51:06;19.48;49.16
75964;DHT22;65820;44.726;37.764;2023-03-13T00:52:07;19.50;49.21
75964;DHT22;65820;44.726;37.764;2023-03-13T00:53:09;19.50;49.06
75964;DHT22;65820;44.726;37.764;2023-03-13T00:54:10;19.47;48.98
75964;DHT22;65820;44.726;37.764;2023-03-13T00:55:11;19.48;48.75
75964;DHT22;65820;44.726;37.764;2023-03-13T00:56:14;19.46;49.02
75964;DHT22;65820;44.726;37.764;2023-03-13T00:57:16;19.47;49.01
75964;DHT22;65820;44.726;37.764;2023-03-13T00:58:17;19.46;49.08
75964;DHT22;65820;44.726;37.764;2023-03-13T00:59:18;19.47;48.94
75964;DHT22;65820;44.726;37.764;2023-03-13T01:00:20;19.45;48.92
75964;DHT22;65820;44.726;37.764;2023-03-13T01:01:29;19.46;49.01
75964;DHT22;65820;44.726;37.764;2023-03-13T01:02:31;19.44;48.98
75964;DHT22;65820;44.726;37.764;2023-03-13T01:03:32;19.45;48.89
75964;DHT22;65820;44.726;37.764;2023-03-13T01:04:35;19.44;49.15
75964;DHT22;65820;44.726;37.764;2023-03-13T01:05:37;19.44;48.90
75964;DHT22;65820;44.726;37.764;2023-03-13T01:06:40;19.45;48.95
75964;DHT22;65820;44.726;37.764;2023-03-13T01:07:42;19.44;48.96
75964;DHT22;65820;44.726;37.764;2023-03-13T01:08:44;19.43;48.63
75964;DHT22;65820;44.726;37.764;2023-03-13T01:09:45;19.44;48.89
75964;DHT22;65820;44.726;37.764;2023-03-13T01:10:46;19.43;48.79
75964;DHT22;65820;44.726;37.764;2023-03-13T01:11:47;19.43;48.92
75964;DHT22;65820;44.726;37.764;2023-03-13T01:12:49;19.43;48.72
75964;DHT22;65820;44.726;37.764;2023-03-13T01:13:53;19.42;48.95
75964;DHT22;65820;44.726;37.764;2023-03-13T01:14:55;19.43;48.55
75964;DHT22;65820;44.726;37.764;2023-03-13T01:15:56;19.43;48.93
75964;DHT22;65820;44.726;37.764;2023-03-13T01:16:57;19.42;48.60
75964;DHT22;65820;44.726;37.764;2023-03-13T01:17:59;19.42;48.70
75964;DHT22;65820;44.726;37.764;2023-03-13T01:19:03;19.43;48.77
75964;DHT22;65820;44.726;37.764;2023-03-13T01:20:05;19.41;48.72
75964;DHT22;65820;44.726;37.764;2023-03-13T01:21:08;19.41;48.63
75964;DHT22;65820;44.726;37.764;2023-03-13T01:22:09;19.40;48.53
75964;DHT22;65820;44.726;37.764;2023-03-13T01:23:12;19.40;48.50
75964;DHT22;65820;44.726;37.764;2023-03-13T01:24:13;19.41;48.31
75964;DHT22;65820;44.726;37.764;2023-03-13T01:25:15;19.39;48.29
75964;DHT22;65820;44.726;37.764;2023-03-13T01:26:18;19.40;48.61
75964;DHT22;65820;44.726;37.764;2023-03-13T01:27:20;19.39;48.41
75964;DHT22;65820;44.726;37.764;2023-03-13T01:28:22;19.38;48.54
75964;DHT22;65820;44.726;37.764;2023-03-13T01:29:24;19.39;48.53
75964;DHT22;65820;44.726;37.764;2023-03-13T01:30:25;19.37;48.31
75964;DHT22;65820;44.726;37.764;2023-03-13T01:31:32;19.38;48.23
75964;DHT22;65820;44.726;37.764;2023-03-13T01:32:34;19.39;48.55
75964;DHT22;65820;44.726;37.764;2023-03-13T01:33:37;19.37;48.49
75964;DHT22;65820;44.726;37.764;2023-03-13T01:34:38;19.38;48.35
75964;DHT22;65820;44.726;37.764;2023-03-13T01:35:40;19.37;48.54
75964;DHT22;65820;44.726;37.764;2023-03-13T01:36:41;19.38;48.30
75964;DHT22;65820;44.726;37.764;2023-03-13T01:37:43;19.37;48.41
75964;DHT22;65820;44.726;37.764;2023-03-13T01:38:49;19.37;48.56
75964;DHT22;65820;44.726;37.764;2023-03-13T01:39:51;19.37;48.74
75964;DHT22;65820;44.726;37.764;2023-03-13T01:40:52;19.37;48.57
75964;DHT22;65820;44.726;37.764;2023-03-13T01:41:53;19.37;48.37
75964;DHT22;65820;44.726;37.764;2023-03-13T01:42:59;19.37;48.35
75964;DHT22;65820;44.726;37.764;2023-03-13T01:44:01;19.36;48.51
75964;DHT22;65820;44.726;37.764;2023-03-13T01:46:47;19.37;48.31
75964;DHT22;65820;44.726;37.764;2023-03-13T01:48:08;19.35;48.56
75964;DHT22;65820;44.726;37.764;2023-03-13T01:49:26;19.37;48.45
75964;DHT22;65820;44.726;37.764;2023-03-13T01:50:47;19.35;48.26
75964;DHT22;65820;44.726;37.764;2023-03-13T01:52:01;19.35;48.53
75964;DHT22;65820;44.726;37.764;2023-03-13T01:53:05;19.33;48.39
75964;DHT22;65820;44.726;37.764;2023-03-13T01:54:11;19.33;48.66
75964;DHT22;65820;44.726;37.764;2023-03-13T01:55:15;19.35;48.32
75964;DHT22;65820;44.726;37.764;2023-03-13T01:56:28;19.35;48.21
75964;DHT22;65820;44.726;37.764;2023-03-13T01:57:38;19.33;48.29
75964;DHT22;65820;44.726;37.764;2023-03-13T01:58:40;19.33;48.47
75964;DHT22;65820;44.726;37.764;2023-03-13T02:00:03;19.33;48.50
75964;DHT22;65820;44.726;37.764;2023-03-13T02:01:14;19.31;48.41
75964;DHT22;65820;44.726;37.764;2023-03-13T02:02:15;19.33;48.82
75964;DHT22;65820;44.726;37.764;2023-03-13T02:03:19;19.31;48.64
75964;DHT22;65820;44.726;37.764;2023-03-13T02:04:22;19.31;48.70
75964;DHT22;65820;44.726;37.764;2023-03-13T02:05:25;19.31;48.59
75964;DHT22;65820;44.726;37.764;2023-03-13T02:06:29;19.31;48.57
75964;DHT22;65820;44.726;37.764;2023-03-13T02:07:56;19.31;48.60
75964;DHT22;65820;44.726;37.764;2023-03-13T02:09:03;19.31;48.29
75964;DHT22;65820;44.726;37.764;2023-03-13T02:10:06;19.31;48.44
75964;DHT22;65820;44.726;37.764;2023-03-13T02:12:26;19.30;48.41
75964;DHT22;65820;44.726;37.764;2023-03-13T02:13:29;19.31;48.23
75964;DHT22;65820;44.726;37.764;2023-03-13T02:14:33;19.30;48.33
75964;DHT22;65820;44.726;37.764;2023-03-13T02:15:35;19.30;48.50
75964;DHT22;65820;44.726;37.764;2023-03-13T02:16:37;19.30;48.24
75964;DHT22;65820;44.726;37.764;2023-03-13T02:17:40;19.30;48.44
75964;DHT22;65820;44.726;37.764;2023-03-13T02:18:43;19.30;48.53
75964;DHT22;65820;44.726;37.764;2023-03-13T02:19:49;19.30;48.23
75964;DHT22;65820;44.726;37.764;2023-03-13T02:20:55;19.30;48.35
75964;DHT22;65820;44.726;37.764;2023-03-13T02:23:30;19.30;48.22
75964;DHT22;65820;44.726;37.764;2023-03-13T02:25:11;19.30;48.14
75964;DHT22;65820;44.726;37.764;2023-03-13T02:26:16;19.30;48.43
75964;DHT22;65820;44.726;37.764;2023-03-13T02:27:18;19.29;48.15
75964;DHT22;65820;44.726;37.764;2023-03-13T02:28:23;19.29;48.39
75964;DHT22;65820;44.726;37.764;2023-03-13T02:29:26;19.29;48.24
75964;DHT22;65820;44.726;37.764;2023-03-13T02:30:28;19.28;48.40
75964;DHT22;65820;44.726;37.764;2023-03-13T02:31:30;19.28;48.24
75964;DHT22;65820;44.726;37.764;2023-03-13T02:32:32;19.28;48.36
75964;DHT22;65820;44.726;37.764;2023-03-13T02:33:38;19.28;48.42
75964;DHT22;65820;44.726;37.764;2023-03-13T02:34:41;19.27;48.37
75964;DHT22;65820;44.726;37.764;2023-03-13T02:35:45;19.28;48.15
75964;DHT22;65820;44.726;37.764;2023-03-13T02:36:49;19.28;48.22
75964;DHT22;65820;44.726;37.764;2023-03-13T02:37:53;19.27;48.39
75964;DHT22;65820;44.726;37.764;2023-03-13T02:39:01;19.27;48.37
75964;DHT22;65820;44.726;37.764;2023-03-13T02:40:10;19.27;48.35
75964;DHT22;65820;44.726;37.764;2023-03-13T02:41:12;19.28;48.39
75964;DHT22;65820;44.726;37.764;2023-03-13T02:42:16;19.27;48.22
75964;DHT22;65820;44.726;37.764;2023-03-13T02:43:34;19.27;48.10
75964;DHT22;65820;44.726;37.764;2023-03-13T02:44:40;19.28;48.12
75964;DHT22;65820;44.726;37.764;2023-03-13T02:46:02;19.27;48.18
75964;DHT22;65820;44.726;37.764;2023-03-13T02:47:06;19.26;48.49
75964;DHT22;65820;44.726;37.764;2023-03-13T02:48:10;19.26;48.40
75964;DHT22;65820;44.726;37.764;2023-03-13T02:49:26;19.26;48.39
75964;DHT22;65820;44.726;37.764;2023-03-13T02:50:29;19.24;48.34
75964;DHT22;65820;44.726;37.764;2023-03-13T02:51:42;19.25;48.47
75964;DHT22;65820;44.726;37.764;2023-03-13T02:52:48;19.25;48.15
75964;DHT22;65820;44.726;37.764;2023-03-13T02:53:53;19.25;48.35
75964;DHT22;65820;44.726;37.764;2023-03-13T02:55:08;19.24;48.76
75964;DHT22;65820;44.726;37.764;2023-03-13T02:56:13;19.25;48.30
75964;DHT22;65820;44.726;37.764;2023-03-13T02:57:16;19.24;48.23
75964;DHT22;65820;44.726;37.764;2023-03-13T02:58:17;19.24;48.23
75964;DHT22;65820;44.726;37.764;2023-03-13T02:59:19;19.24;48.34
75964;DHT22;65820;44.726;37.764;2023-03-13T03:00:21;19.25;48.07
75964;DHT22;65820;44.726;37.764;2023-03-13T03:01:26;19.24;48.40
75964;DHT22;65820;44.726;37.764;2023-03-13T03:02:27;19.24;48.09
75964;DHT22;65820;44.726;37.764;2023-03-13T03:03:29;19.25;48.24
75964;DHT22;65820;44.726;37.764;2023-03-13T03:04:30;19.24;48.76
75964;DHT22;65820;44.726;37.764;2023-03-13T03:05:31;19.23;48.23
75964;DHT22;65820;44.726;37.764;2023-03-13T03:06:32;19.23;48.12
75964;DHT22;65820;44.726;37.764;2023-03-13T03:07:36;19.23;48.47
75964;DHT22;65820;44.726;37.764;2023-03-13T03:08:39;19.24;48.32
75964;DHT22;65820;44.726;37.764;2023-03-13T03:09:45;19.23;48.12
75964;DHT22;65820;44.726;37.764;2023-03-13T03:10:51;19.23;48.39
75964;DHT22;65820;44.726;37.764;2023-03-13T03:11:55;19.23;48.19
75964;DHT22;65820;44.726;37.764;2023-03-13T03:12:57;19.23;48.17
75964;DHT22;65820;44.726;37.764;2023-03-13T03:13:58;19.23;48.28
75964;DHT22;65820;44.726;37.764;2023-03-13T03:15:01;19.23;48.17
75964;DHT22;65820;44.726;37.764;2023-03-13T03:16:10;19.21;48.03
75964;DHT22;65820;44.726;37.764;2023-03-13T03:17:12;19.22;48.24
75964;DHT22;65820;44.726;37.764;2023-03-13T03:18:13;19.21;48.16
75964;DHT22;65820;44.726;37.764;2023-03-13T03:19:16;19.22;48.11
75964;DHT22;65820;44.726;37.764;2023-03-13T03:20:17;19.22;48.18
75964;DHT22;65820;44.726;37.764;2023-03-13T03:21:18;19.22;48.24
75964;DHT22;65820;44.726;37.764;2023-03-13T03:22:21;19.21;48.18
75964;DHT22;65820;44.726;37.764;2023-03-13T03:23:22;19.21;48.19
75964;DHT22;65820;44.726;37.764;2023-03-13T03:24:24;19.22;48.44
75964;DHT22;65820;44.726;37.764;2023-03-13T03:25:25;19.21;48.15
75964;DHT22;65820;44.726;37.764;2023-03-13T03:26:27;19.21;48.16
75964;DHT22;65820;44.726;37.764;2023-03-13T03:27:29;19.22;47.96
75964;DHT22;65820;44.726;37.764;2023-03-13T03:28:31;19.22;48.31
75964;DHT22;65820;44.726;37.764;2023-03-13T03:29:34;19.25;48.66
75964;DHT22;65820;44.726;37.764;2023-03-13T03:30:36;19.26;50.10
75964;DHT22;65820;44.726;37.764;2023-03-13T03:31:37;19.29;49.57
75964;DHT22;65820;44.726;37.764;2023-03-13T03:32:38;19.31;49.34
75964;DHT22;65820;44.726;37.764;2023-03-13T03:33:40;19.31;49.99
75964;DHT22;65820;44.726;37.764;2023-03-13T03:34:44;19.35;50.45
75964;DHT22;65820;44.726;37.764;2023-03-13T03:35:45;19.37;49.84
75964;DHT22;65820;44.726;37.764;2023-03-13T03:36:47;19.38;49.84
75964;DHT22;65820;44.726;37.764;2023-03-13T03:37:48;19.41;50.88
75964;DHT22;65820;44.726;37.764;2023-03-13T03:38:50;19.43;51.37
75964;DHT22;65820;44.726;37.764;2023-03-13T03:39:55;19.44;50.20
75964;DHT22;65820;44.726;37.764;2023-03-13T03:40:56;19.44;49.48
75964;DHT22;65820;44.726;37.764;2023-03-13T03:41:57;19.45;48.75
75964;DHT22;65820;44.726;37.764;2023-03-13T03:43:00;19.44;48.59
75964;DHT22;65820;44.726;37.764;2023-03-13T03:44:03;19.43;48.41
75964;DHT22;65820;44.726;37.764;2023-03-13T03:45:14;19.41;48.09
75964;DHT22;65820;44.726;37.764;2023-03-13T03:46:15;19.41;48.37
75964;DHT22;65820;44.726;37.764;2023-03-13T03:47:17;19.42;48.22
75964;DHT22;65820;44.726;37.764;2023-03-13T03:48:20;19.41;48.37
75964;DHT22;65820;44.726;37.764;2023-03-13T03:49:22;19.40;48.39
75964;DHT22;65820;44.726;37.764;2023-03-13T03:50:24;19.41;48.27
75964;DHT22;65820;44.726;37.764;2023-03-13T03:51:31;19.41;48.89
75964;DHT22;65820;44.726;37.764;2023-03-13T03:52:32;19.40;48.76
75964;DHT22;65820;44.726;37.764;2023-03-13T03:53:34;19.38;48.51
75964;DHT22;65820;44.726;37.764;2023-03-13T03:54:35;19.37;48.16
75964;DHT22;65820;44.726;37.764;2023-03-13T03:55:37;19.37;47.90
75964;DHT22;65820;44.726;37.764;2023-03-13T03:56:38;19.35;47.87
75964;DHT22;65820;44.726;37.764;2023-03-13T03:57:39;19.35;48.00
75964;DHT22;65820;44.726;37.764;2023-03-13T03:58:45;19.33;48.10
75964;DHT22;65820;44.726;37.764;2023-03-13T04:00:00;19.33;48.49
75964;DHT22;65820;44.726;37.764;2023-03-13T04:01:03;19.35;48.26
75964;DHT22;65820;44.726;37.764;2023-03-13T04:02:05;19.37;48.90
75964;DHT22;65820;44.726;37.764;2023-03-13T04:03:07;19.40;48.73
75964;DHT22;65820;44.726;37.764;2023-03-13T04:04:09;19.41;49.33
75964;DHT22;65820;44.726;37.764;2023-03-13T04:05:11;19.43;49.75
75964;DHT22;65820;44.726;37.764;2023-03-13T04:06:13;19.44;50.41
75964;DHT22;65820;44.726;37.764;2023-03-13T04:07:16;19.46;50.37
75964;DHT22;65820;44.726;37.764;2023-03-13T04:08:18;19.48;49.61
75964;DHT22;65820;44.726;37.764;2023-03-13T04:09:19;19.50;49.79
75964;DHT22;65820;44.726;37.764;2023-03-13T04:10:21;19.53;49.92
75964;DHT22;65820;44.726;37.764;2023-03-13T04:11:22;19.54;50.11
75964;DHT22;65820;44.726;37.764;2023-03-13T04:12:27;19.56;50.37
75964;DHT22;65820;44.726;37.764;2023-03-13T04:13:29;19.56;50.24
75964;DHT22;65820;44.726;37.764;2023-03-13T04:14:33;19.57;49.89
75964;DHT22;65820;44.726;37.764;2023-03-13T04:15:40;19.59;49.82
75964;DHT22;65820;44.726;37.764;2023-03-13T04:16:43;19.60;49.76
75964;DHT22;65820;44.726;37.764;2023-03-13T04:17:44;19.61;49.68
75964;DHT22;65820;44.726;37.764;2023-03-13T04:18:46;19.62;49.65
75964;DHT22;65820;44.726;37.764;2023-03-13T04:19:47;19.61;49.44
75964;DHT22;65820;44.726;37.764;2023-03-13T04:20:48;19.62;49.57
75964;DHT22;65820;44.726;37.764;2023-03-13T04:21:50;19.63;49.41
75964;DHT22;65820;44.726;37.764;2023-03-13T04:22:53;19.63;49.32
75964;DHT22;65820;44.726;37.764;2023-03-13T04:23:55;19.62;49.79
75964;DHT22;65820;44.726;37.764;2023-03-13T04:24:56;19.62;49.74
75964;DHT22;65820;44.726;37.764;2023-03-13T04:25:58;19.61;49.45
75964;DHT22;65820;44.726;37.764;2023-03-13T04:26:59;19.62;48.96
75964;DHT22;65820;44.726;37.764;2023-03-13T04:28:02;19.62;48.79
75964;DHT22;65820;44.726;37.764;2023-03-13T04:29:11;19.62;49.00
75964;DHT22;65820;44.726;37.764;2023-03-13T04:30:24;19.61;48.74
75964;DHT22;65820;44.726;37.764;2023-03-13T04:31:54;19.60;48.53
75964;DHT22;65820;44.726;37.764;2023-03-13T04:33:14;19.59;48.95
75964;DHT22;65820;44.726;37.764;2023-03-13T04:34:24;19.58;48.70
75964;DHT22;65820;44.726;37.764;2023-03-13T04:35:34;19.57;48.82
75964;DHT22;65820;44.726;37.764;2023-03-13T04:36:54;19.57;48.64
75964;DHT22;65820;44.726;37.764;2023-03-13T04:38:21;19.56;48.66
75964;DHT22;65820;44.726;37.764;2023-03-13T04:39:25;19.56;48.67
75964;DHT22;65820;44.726;37.764;2023-03-13T04:40:52;19.55;48.69
75964;DHT22;65820;44.726;37.764;2023-03-13T04:42:15;19.53;48.90
75964;DHT22;65820;44.726;37.764;2023-03-13T04:43:39;19.53;48.72
75964;DHT22;65820;44.726;37.764;2023-03-13T04:45:00;19.51;48.60
75964;DHT22;65820;44.726;37.764;2023-03-13T04:46:20;19.51;48.70
75964;DHT22;65820;44.726;37.764;2023-03-13T04:47:24;19.51;48.77
75964;DHT22;65820;44.726;37.764;2023-03-13T04:49:01;19.51;48.64
75964;DHT22;65820;44.726;37.764;2023-03-13T04:50:23;19.50;48.72
75964;DHT22;65820;44.726;37.764;2023-03-13T04:51:45;19.48;48.77
75964;DHT22;65820;44.726;37.764;2023-03-13T04:53:05;19.48;48.61
75964;DHT22;65820;44.726;37.764;2023-03-13T04:54:23;19.47;48.79
75964;DHT22;65820;44.726;37.764;2023-03-13T04:55:32;19.46;48.78
75964;DHT22;65820;44.726;37.764;2023-03-13T04:56:56;19.47;48.50
75964;DHT22;65820;44.726;37.764;2023-03-13T04:58:01;19.46;48.67
75964;DHT22;65820;44.726;37.764;2023-03-13T04:59:14;19.46;48.50
75964;DHT22;65820;44.726;37.764;2023-03-13T05:00:41;19.46;48.59
75964;DHT22;65820;44.726;37.764;2023-03-13T05:01:50;19.47;48.51
75964;DHT22;65820;44.726;37.764;2023-03-13T05:03:29;19.45;48.55
75964;DHT22;65820;44.726;37.764;2023-03-13T05:04:44;19.45;48.53
75964;DHT22;65820;44.726;37.764;2023-03-13T05:06:05;19.44;48.37
75964;DHT22;65820;44.726;37.764;2023-03-13T05:07:29;19.45;48.53
75964;DHT22;65820;44.726;37.764;2023-03-13T05:08:57;19.43;48.51
75964;DHT22;65820;44.726;37.764;2023-03-13T05:10:25;19.43;48.21
75964;DHT22;65820;44.726;37.764;2023-03-13T05:11:50;19.42;48.34
75964;DHT22;65820;44.726;37.764;2023-03-13T05:13:00;19.42;48.15
75964;DHT22;65820;44.726;37.764;2023-03-13T05:14:22;19.43;48.41
75964;DHT22;65820;44.726;37.764;2023-03-13T05:15:46;19.44;48.50
75964;DHT22;65820;44.726;37.764;2023-03-13T05:17:14;19.43;48.28
75964;DHT22;65820;44.726;37.764;2023-03-13T05:18:39;19.42;48.43
75964;DHT22;65820;44.726;37.764;2023-03-13T05:20:00;19.43;48.47
75964;DHT22;65820;44.726;37.764;2023-03-13T05:21:19;19.43;48.47
75964;DHT22;65820;44.726;37.764;2023-03-13T05:22:41;19.42;48.18
75964;DHT22;65820;44.726;37.764;2023-03-13T05:23:48;19.43;48.30
75964;DHT22;65820;44.726;37.764;2023-03-13T05:25:13;19.43;48.40
75964;DHT22;65820;44.726;37.764;2023-03-13T05:26:46;19.41;48.15
75964;DHT22;65820;44.726;37.764;2023-03-13T05:28:01;19.41;48.41
75964;DHT22;65820;44.726;37.764;2023-03-13T05:29:21;19.42;48.31
75964;DHT22;65820;44.726;37.764;2023-03-13T05:30:31;19.43;48.28
75964;DHT22;65820;44.726;37.764;2023-03-13T05:31:38;19.41;48.36
75964;DHT22;65820;44.726;37.764;2023-03-13T05:32:54;19.41;48.03
75964;DHT22;65820;44.726;37.764;2023-03-13T05:34:31;19.41;48.42
75964;DHT22;65820;44.726;37.764;2023-03-13T05:35:32;19.42;48.21
75964;DHT22;65820;44.726;37.764;2023-03-13T05:36:57;19.42;48.28
75964;DHT22;65820;44.726;37.764;2023-03-13T05:38:24;19.42;48.31
75964;DHT22;65820;44.726;37.764;2023-03-13T05:39:58;19.41;48.13
75964;DHT22;65820;44.726;37.764;2023-03-13T05:41:22;19.41;48.16
75964;DHT22;65820;44.726;37.764;2023-03-13T05:42:56;19.41;48.02
75964;DHT22;65820;44.726;37.764;2023-03-13T05:44:17;19.42;48.11
75964;DHT22;65820;44.726;37.764;2023-03-13T05:45:25;19.41;48.14
75964;DHT22;65820;44.726;37.764;2023-03-13T05:46:56;19.41;48.20
75964;DHT22;65820;44.726;37.764;2023-03-13T05:48:23;19.40;47.97
75964;DHT22;65820;44.726;37.764;2023-03-13T05:49:43;19.39;48.35
75964;DHT22;65820;44.726;37.764;2023-03-13T05:51:05;19.40;47.96
75964;DHT22;65820;44.726;37.764;2023-03-13T05:52:36;19.41;47.46
75964;DHT22;65820;44.726;37.764;2023-03-13T05:53:48;19.41;47.61
75964;DHT22;65820;44.726;37.764;2023-03-13T05:55:00;19.42;47.83
75964;DHT22;65820;44.726;37.764;2023-03-13T05:56:20;19.42;47.69
75964;DHT22;65820;44.726;37.764;2023-03-13T05:57:27;19.42;47.76
75964;DHT22;65820;44.726;37.764;2023-03-13T05:58:51;19.41;47.96
75964;DHT22;65820;44.726;37.764;2023-03-13T06:00:22;19.42;47.83
75964;DHT22;65820;44.726;37.764;2023-03-13T06:01:37;19.41;47.73
75964;DHT22;65820;44.726;37.764;2023-03-13T06:03:00;19.43;47.54
75964;DHT22;65820;44.726;37.764;2023-03-13T06:04:10;19.41;47.34
75964;DHT22;65820;44.726;37.764;2023-03-13T06:05:13;19.40;46.93
75964;DHT22;65820;44.726;37.764;2023-03-13T06:06:14;19.37;46.93
75964;DHT22;65820;44.726;37.764;2023-03-13T06:07:21;19.36;46.80
75964;DHT22;65820;44.726;37.764;2023-03-13T06:08:23;19.35;46.91
75964;DHT22;65820;44.726;37.764;2023-03-13T06:09:24;19.33;46.80
75964;DHT22;65820;44.726;37.764;2023-03-13T06:10:27;19.31;46.81
75964;DHT22;65820;44.726;37.764;2023-03-13T06:11:28;19.30;46.77
75964;DHT22;65820;44.726;37.764;2023-03-13T06:12:30;19.29;46.80
75964;DHT22;65820;44.726;37.764;2023-03-13T06:13:32;19.28;46.67
75964;DHT22;65820;44.726;37.764;2023-03-13T06:14:38;19.26;46.88
75964;DHT22;65820;44.726;37.764;2023-03-13T06:15:39;19.26;47.01
75964;DHT22;65820;44.726;37.764;2023-03-13T06:17:08;19.23;46.67
75964;DHT22;65820;44.726;37.764;2023-03-13T06:18:09;19.24;46.75
75964;DHT22;65820;44.726;37.764;2023-03-13T06:19:10;19.23;46.67
75964;DHT22;65820;44.726;37.764;2023-03-13T06:20:12;19.22;47.04
75964;DHT22;65820;44.726;37.764;2023-03-13T06:21:13;19.20;46.81
75964;DHT22;65820;44.726;37.764;2023-03-13T06:22:15;19.20;46.77
75964;DHT22;65820;44.726;37.764;2023-03-13T06:23:17;19.18;46.91
75964;DHT22;65820;44.726;37.764;2023-03-13T06:24:18;19.20;46.74
75964;DHT22;65820;44.726;37.764;2023-03-13T06:25:19;19.18;46.80
75964;DHT22;65820;44.726;37.764;2023-03-13T06:26:21;19.16;46.59
75964;DHT22;65820;44.726;37.764;2023-03-13T06:27:24;19.16;46.72
75964;DHT22;65820;44.726;37.764;2023-03-13T06:28:25;19.17;46.82
75964;DHT22;65820;44.726;37.764;2023-03-13T06:29:26;19.16;46.68
75964;DHT22;65820;44.726;37.764;2023-03-13T06:30:28;19.16;46.85
75964;DHT22;65820;44.726;37.764;2023-03-13T06:31:29;19.16;46.70
75964;DHT22;65820;44.726;37.764;2023-03-13T06:32:30;19.15;46.64
75964;DHT22;65820;44.726;37.764;2023-03-13T06:33:32;19.15;46.69
75964;DHT22;65820;44.726;37.764;2023-03-13T06:34:33;19.13;46.78
75964;DHT22;65820;44.726;37.764;2023-03-13T06:35:35;19.13;46.64
75964;DHT22;65820;44.726;37.764;2023-03-13T06:36:39;19.14;46.73
75964;DHT22;65820;44.726;37.764;2023-03-13T06:37:40;19.13;46.61
75964;DHT22;65820;44.726;37.764;2023-03-13T06:38:42;19.12;46.99
75964;DHT22;65820;44.726;37.764;2023-03-13T06:39:43;19.12;46.79
75964;DHT22;65820;44.726;37.764;2023-03-13T06:40:44;19.11;46.78
75964;DHT22;65820;44.726;37.764;2023-03-13T06:41:45;19.12;46.63
75964;DHT22;65820;44.726;37.764;2023-03-13T06:42:47;19.11;46.74
75964;DHT22;65820;44.726;37.764;2023-03-13T06:43:48;19.11;46.63
75964;DHT22;65820;44.726;37.764;2023-03-13T06:44:49;19.12;46.62
75964;DHT22;65820;44.726;37.764;2023-03-13T06:45:51;19.10;46.70
75964;DHT22;65820;44.726;37.764;2023-03-13T06:46:52;19.11;46.73
75964;DHT22;65820;44.726;37.764;2023-03-13T06:47:53;19.11;46.81
75964;DHT22;65820;44.726;37.764;2023-03-13T06:48:55;19.10;46.73
75964;DHT22;65820;44.726;37.764;2023-03-13T06:49:57;19.10;46.59
75964;DHT22;65820;44.726;37.764;2023-03-13T06:50:58;19.10;46.54
75964;DHT22;65820;44.726;37.764;2023-03-13T06:52:00;19.09;46.36
75964;DHT22;65820;44.726;37.764;2023-03-13T06:53:01;19.10;46.81
75964;DHT22;65820;44.726;37.764;2023-03-13T06:54:02;19.09;46.79
75964;DHT22;65820;44.726;37.764;2023-03-13T06:55:04;19.09;46.46
75964;DHT22;65820;44.726;37.764;2023-03-13T06:56:06;19.10;46.54
75964;DHT22;65820;44.726;37.764;2023-03-13T06:57:07;19.09;46.54
75964;DHT22;65820;44.726;37.764;2023-03-13T06:58:09;19.08;46.69